// World Multilingual Website with PHP & AJAX - Αναφορές Αεροδρομίων

Αναφορές Αεροδρομίων

 

KSJC - San Jose, California, USA
Distance from station: ΒΑ 14km
Ενημερώθηκε: 20/08/2019 23:53
Few Clouds
Few Clouds
 Ανεμος από Β
Ανεμος: Β 19 km/h
Θερμοκρασία: 23°C
Σημείο Δρόσου: 14°C
Υγρασία: 57%
Βαρόμετρο: 1016.6 hPa
Clouds: Few Clouds
Visibility: 16 km
Cloud details: Few Clouds 427 m
Few Clouds 1097 m
2019/08/20 20:53 KSJC 202053Z 35010KT 10SM FEW014 FEW036 23/14 A3002 RMK AO2 SLP163 T02330144 58010
KNUQ - Moffett Nas/Mtn, California, USA
Distance from station: Β 14km
Ενημερώθηκε: 20/08/2019 23:56
Αίθριος
Αίθριος
 Ανεμος από Β
Ανεμος: Β 30 km/h
Θερμοκρασία: 23°C
Σημείο Δρόσου: 14°C
Υγρασία: 57%
Βαρόμετρο: 1016.6 hPa
Clouds: Αίθριος
Visibility: 16 km
2019/08/20 20:56 KNUQ 202056Z 36016KT 10SM CLR 23/14 A3002 RMK AO2 SLP167 T02280144 58011
 
KPAO - Palo Alto, California, USA
Distance from station: ΒΒΔ 23km
Ενημερώθηκε: 20/08/2019 23:47
Αίθριος
Αίθριος
 Ανεμος από Β
Ανεμος: Β 28 km/h
Θερμοκρασία: 23°C
Σημείο Δρόσου: 15°C
Υγρασία: 61%
Βαρόμετρο: 1016.3 hPa
Clouds: Αίθριος
Visibility: 16 km
2019/08/20 20:47 KPAO 202047Z 35015KT 10SM SKC 23/15 A3001
KRHV - San Jose/Reid, California, USA
Distance from station: ΑΒΑ 19km
Ενημερώθηκε: 20/08/2019 23:47
Αίθριος
Αίθριος
 Ανεμος από ΒΒΔ
Ανεμος: ΒΒΔ 15 km/h
Θερμοκρασία: 23°C
Σημείο Δρόσου: 13°C
Υγρασία: 53%
Βαρόμετρο: 1016.6 hPa
Clouds: Αίθριος
Visibility: 16 km
2019/08/20 20:47 KRHV 202047Z 33008KT 10SM SKC 23/13 A3002
 
KOAK - Oakland, California, USA
Distance from station: ΒΒΔ 50km
Ενημερώθηκε: 20/08/2019 23:53
Few Clouds
Few Clouds
 Ανεμος από Δ
Ανεμος: Δ 22 km/h
Θερμοκρασία: 22°C
Σημείο Δρόσου: 14°C
Υγρασία: 61%
Βαρόμετρο: 1016.6 hPa
Clouds: Few Clouds
Visibility: 16 km
Cloud details: Few Clouds 579 m
2019/08/20 20:53 KOAK 202053Z 26012KT 10SM FEW019 22/14 A3002 RMK AO2 SLP166 T02170139 58008
KSQL - San Carlos Airpo, California, USA
Distance from station: ΒΔ 34km
Ενημερώθηκε: 20/08/2019 23:51
Few Clouds
Few Clouds
 Ανεμος από ΒΒΔ
Ανεμος: ΒΒΔ 20 km/h
Θερμοκρασία: 23°C
Σημείο Δρόσου: 13°C
Υγρασία: 53%
Βαρόμετρο: 1016.6 hPa
Clouds: Few Clouds
Visibility: 16 km
Cloud details: Few Clouds 610 m
2019/08/20 20:51 KSQL 202051Z 33011KT 10SM FEW020 23/13 A3002
 
KSFO - San Francisco, California, USA
Distance from station: ΒΔ 49km
Ενημερώθηκε: 20/08/2019 23:56
Few Clouds
Few Clouds
 Ανεμος από Δ
Ανεμος: Δ 22 km/h, Ριπή: 41 km/h
Θερμοκρασία: 22°C
Σημείο Δρόσου: 13°C
Υγρασία: 57%
Βαρόμετρο: 1016.6 hPa
Clouds: Few Clouds
Visibility: 16 km
Cloud details: Few Clouds 579 m
2019/08/20 20:56 KSFO 202056Z 27012G22KT 10SM FEW019 22/13 A3002 RMK AO2 SLP166 T02170128 58008
KE16 - San Martin, California, USA
Distance from station: ΑΝΑ 43km
Ενημερώθηκε: 05/08/2019 20:10
NOT Current
Αίθριος
Αίθριος
 Ανεμος από ΑΝΑ
Ανεμος: ΑΝΑ 19 km/h
Θερμοκρασία: 19°C
Σημείο Δρόσου: 14°C
Υγρασία: 73%
Βαρόμετρο: 1016.9 hPa
Clouds: Αίθριος
Visibility: 16 km
2019/08/05 17:10 KE16 051710Z AUTO 12010KT 10SM CLR 19/14 A3003 RMK AO2
 
KWVI - Watsonville, California, USA
Distance from station: ΝΝΑ 44km
Ενημερώθηκε: 20/08/2019 23:53
Αίθριος
Αίθριος
 Ανεμος από ΝΝΔ
Ανεμος: ΝΝΔ 13 km/h
Θερμοκρασία: 23°C
Σημείο Δρόσου: 14°C
Υγρασία: 57%
Βαρόμετρο: 1016.3 hPa
Clouds: Αίθριος
Visibility: 16 km
2019/08/20 20:53 KWVI 202053Z AUTO 21007KT 180V250 10SM CLR 23/14 A3001 RMK AO2 SLP162 T02330139 58009
KHAF - Half Moon Bay, California, USA
Distance from station: ΔΒΔ 50km
Ενημερώθηκε: 21/08/2019 00:15
Συννεφιά
Συννεφιά
 Ανεμος από ΔΒΔ
Ανεμος: ΔΒΔ 15 km/h
Θερμοκρασία: 18°C
Σημείο Δρόσου: 14°C
Υγρασία: 78%
Βαρόμετρο: 1017.9 hPa
Clouds: Συννεφιά
Visibility: 16 km
Cloud details: Συννεφιά 366 m
2019/08/20 21:15 KHAF 202115Z AUTO 30008KT 10SM OVC012 18/14 A3006 RMK AO2
 
KHWD - Hayward, California, USA
Distance from station: Β 44km
Ενημερώθηκε: 20/08/2019 23:54
Μερικώς νεφελώδης
Μερικώς νεφελώδης
 Ανεμος από Δ
Ανεμος: Δ 13 km/h
Θερμοκρασία: 21°C
Σημείο Δρόσου: 14°C
Υγρασία: 64%
Βαρόμετρο: 1016.6 hPa
Clouds: Μερικώς νεφελώδης
Visibility: 16 km
Cloud details: Μερικώς νεφελώδης 549 m
2019/08/20 20:54 KHWD 202054Z 26007KT 10SM SCT018 21/14 A3002 RMK AO2 SLP175 T02060139 58008
KLVK - Livermore, California, USA
Distance from station: ΒΒΑ 51km
Ενημερώθηκε: 20/08/2019 23:53
Αίθριος
Αίθριος
 Ανεμος από ΔΒΔ
Ανεμος: ΔΒΔ 20 km/h
Θερμοκρασία: 25°C
Σημείο Δρόσου: 13°C
Υγρασία: 47%
Βαρόμετρο: 1015.9 hPa
Clouds: Αίθριος
Visibility: 16 km
2019/08/20 20:53 KLVK 202053Z 29011KT 10SM CLR 25/13 A3000 RMK AO2 SLP154 T02500128 56011